Aérodrome :
LOGIN :

S'inscrire | Disclaimer

   EN    FR    IT 

 










Légende :    VFR   VFR Marginal   IFR   IFR Intensif   IFR Très Intensif
Visi : 
Plafond : 
>= 8 km
>= 3000ft
5 à 8 km
1000 à 3000 ft
1500m à 5 km
500 à 1000 ft
800 à 1500m
200 à 500 ft
< 800m
< 200 ft
Symboles :   Orages  Brouillard  Fortes neiges  Fortes précipitations  Vent > 20 kt
SIGMETs :   Divers  Orages  Givrage  Turbulence  Onde Orograph.  Cendres Volcan.






- Altitude de l'aérodrome : 177 ft
- Code IATA : BRI


LIBD - Palese Macchie Bari

DERNIER METAR :
  • 191420Z 07009KT CAVOK 27/17 Q1012

METARs EXPIRÉS :
  • 191350Z 07008KT 350V100 CAVOK 27/18 Q1012
  • 191320Z 06006KT CAVOK 27/17 Q1012
  • 191250Z 05006KT 010V080 CAVOK 27/18 Q1012
  • 191220Z 02005KT 310V080 CAVOK 28/16 Q1012
  • 191150Z 34006KT 290V050 CAVOK 27/15 Q1013

TAF TAF LIBD
Valide du 19 à 12h jusqu'au 20 à 12h UTC


191100Z 1912/2012 06010KT 9999 FEW040
BECMG 1918/1920 21008KT



MET'MAP, la Météo Aéronautique d'un coup d'oeil ! - Copyright ORBIFLY Décembre 2007 - Disclaimer

ORBIFLY MET'MAP TEAM :

Programmation & Développement : Alexandra Zaïnal
Sur une idée originale de : Baudouin d'Aumeries
Assistance à la programmation : Marc-Olivier Méhu
Soutien technique & logistique : Manuel Goepfert

Contact : metmap@orbifly.com




SOURCES & CREDITS :

   NOAA